Time;durP1;ratioP1;P1;durP2;ratioP2;P2;SDS_P1;SDS_P2;PMS_P1;PMS_P2;Temp;Humidity;BMP_temperature;BMP_pressure;BME280_temperature;BME280_humidity;BME280_pressure;Samples;Min_cycle;Max_cycle;Signal;HPM_P1;HPM_P2
2023/08/03 00:00:13;;;;;;;12.32;3.75;;;;;15.70;98716.00;;;;10252511;28;20815;-78
2023/08/03 00:05:19;;;;;;;16.15;4.07;;;;;15.70;98722.00;;;;10256965;28;20207;-78
2023/08/03 00:10:21;;;;;;;21.17;4.53;;;;;15.70;98732.00;;;;10256599;28;21339;-79
2023/08/03 00:15:23;;;;;;;22.50;5.03;;;;;15.70;98747.00;;;;10272326;28;20243;-79
2023/08/03 00:20:24;;;;;;;15.75;4.68;;;;;15.70;98752.00;;;;10255242;28;20211;-77
2023/08/03 00:25:26;;;;;;;12.30;5.22;;;;;15.70;98764.00;;;;10239203;28;20211;-78
2023/08/03 00:30:27;;;;;;;17.63;4.72;;;;;15.70;98776.00;;;;10253552;28;20195;-78
2023/08/03 00:35:28;;;;;;;16.05;4.95;;;;;15.70;98773.00;;;;10270728;28;20756;-77
2023/08/03 00:40:30;;;;;;;20.25;5.00;;;;;15.70;98778.00;;;;10267971;28;20239;-76
2023/08/03 00:45:31;;;;;;;21.38;5.15;;;;;15.70;98785.00;;;;10268207;28;20779;-77
2023/08/03 00:50:32;;;;;;;21.05;5.40;;;;;15.70;98799.00;;;;10262971;28;20207;-77
2023/08/03 00:55:34;;;;;;;17.40;5.35;;;;;15.70;98801.00;;;;10268333;28;20207;-77
2023/08/03 01:00:36;;;;;;;21.02;5.18;;;;;15.80;98804.00;;;;10264548;28;20355;-77
2023/08/03 01:05:38;;;;;;;15.77;5.13;;;;;15.80;98799.00;;;;10246854;28;20371;-77
2023/08/03 01:10:39;;;;;;;16.30;5.10;;;;;15.70;98804.00;;;;10267850;28;20203;-76
2023/08/03 01:15:41;;;;;;;19.85;4.82;;;;;15.80;98808.00;;;;10266784;28;20229;-78
2023/08/03 01:20:43;;;;;;;17.35;5.05;;;;;15.70;98803.00;;;;10232683;28;20836;-77
2023/08/03 01:25:45;;;;;;;20.90;4.88;;;;;15.80;98820.00;;;;10264597;28;20207;-76
2023/08/03 01:30:47;;;;;;;18.23;4.72;;;;;15.80;98830.00;;;;10232422;28;20272;-77
2023/08/03 01:35:49;;;;;;;20.90;4.93;;;;;15.80;98837.00;;;;10250319;28;20273;-77
2023/08/03 01:40:53;;;;;;;19.60;4.68;;;;;15.80;98835.00;;;;10246910;28;20219;-76
2023/08/03 01:45:55;;;;;;;21.17;4.55;;;;;15.80;98842.00;;;;10250474;28;21917;-77
2023/08/03 01:50:56;;;;;;;11.25;3.80;;;;;15.80;98843.00;;;;10248405;28;20521;-77
2023/08/03 01:55:57;;;;;;;17.42;4.57;;;;;15.80;98847.00;;;;10267432;28;20698;-77
2023/08/03 02:00:59;;;;;;;17.48;4.57;;;;;15.80;98857.00;;;;10258037;28;20744;-76
2023/08/03 02:06:00;;;;;;;18.90;4.82;;;;;15.80;98862.00;;;;10274126;28;20522;-77
2023/08/03 02:11:01;;;;;;;14.80;3.97;;;;;15.90;98867.00;;;;10258511;28;20203;-77
2023/08/03 02:16:09;;;;;;;20.63;4.40;;;;;15.90;98860.00;;;;10274313;28;20250;-77
2023/08/03 02:21:26;;;;;;;17.10;3.90;;;;;15.90;98871.00;;;;10242495;28;21527;-76
2023/08/03 02:26:28;;;;;;;14.57;5.32;;;;;15.90;98874.00;;;;10259673;28;20555;-78
2023/08/03 02:31:30;;;;;;;14.50;3.97;;;;;15.90;98870.00;;;;10255765;28;20469;-77
2023/08/03 02:36:31;;;;;;;18.95;4.60;;;;;15.90;98876.00;;;;10276461;28;20207;-77
2023/08/03 02:41:38;;;;;;;12.98;3.88;;;;;15.90;98880.00;;;;10261279;28;20628;-77
2023/08/03 02:46:42;;;;;;;17.17;4.45;;;;;15.90;98874.00;;;;10258970;28;20901;-76
2023/08/03 02:51:45;;;;;;;12.15;4.03;;;;;15.90;98877.00;;;;10258149;28;20239;-78
2023/08/03 02:56:49;;;;;;;15.48;3.80;;;;;15.90;98883.00;;;;10257610;28;20562;-78
2023/08/03 03:01:50;;;;;;;12.07;3.95;;;;;15.90;98884.00;;;;10259303;28;21290;-77
2023/08/03 03:06:55;;;;;;;9.70;3.70;;;;;15.90;98888.00;;;;10273456;28;20218;-77
2023/08/03 03:11:57;;;;;;;11.43;3.70;;;;;15.90;98894.00;;;;10273298;28;21515;-77
2023/08/03 03:17:08;;;;;;;12.82;3.80;;;;;15.80;98897.00;;;;10238188;28;20221;-78
2023/08/03 03:22:11;;;;;;;7.13;3.80;;;;;15.70;98909.00;;;;10268529;28;20501;-78
2023/08/03 03:27:14;;;;;;;13.43;3.47;;;;;15.70;98915.00;;;;10225085;28;20212;-78
2023/08/03 03:32:23;;;;;;;11.65;3.63;;;;;15.70;98913.00;;;;10255686;28;20207;-78
2023/08/03 03:37:24;;;;;;;8.20;3.45;;;;;15.60;98927.00;;;;10257307;28;20215;-77
2023/08/03 03:42:26;;;;;;;12.77;3.70;;;;;15.60;98936.00;;;;10256327;28;20219;-78
2023/08/03 03:47:27;;;;;;;17.20;4.10;;;;;15.70;98939.00;;;;10255186;28;20241;-78
2023/08/03 03:52:31;;;;;;;14.00;3.90;;;;;15.70;98955.00;;;;10255860;28;21362;-78
2023/08/03 03:57:33;;;;;;;9.15;3.70;;;;;15.70;98959.00;;;;10254696;28;20217;-77
2023/08/03 04:02:34;;;;;;;13.98;4.07;;;;;15.70;98960.00;;;;10255351;28;20401;-78
2023/08/03 04:07:36;;;;;;;11.73;4.05;;;;;15.70;98962.00;;;;10273789;28;20712;-78
2023/08/03 04:12:37;;;;;;;11.70;4.40;;;;;15.70;98974.00;;;;10255846;28;21257;-77
2023/08/03 04:17:38;;;;;;;16.52;4.65;;;;;15.70;98979.00;;;;10238953;28;20207;-79
2023/08/03 04:22:43;;;;;;;16.55;4.00;;;;;15.70;98984.00;;;;10237277;28;20231;-79
2023/08/03 04:27:49;;;;;;;10.68;4.22;;;;;15.70;98996.00;;;;10238404;28;20211;-77
2023/08/03 04:32:57;;;;;;;15.20;4.53;;;;;15.80;98990.00;;;;10255082;28;20322;-79
2023/08/03 04:38:01;;;;;;;14.57;4.75;;;;;15.80;98999.00;;;;10255746;28;20221;-77
2023/08/03 04:43:02;;;;;;;11.65;4.20;;;;;15.80;98992.00;;;;10236066;28;21282;-78
2023/08/03 04:48:04;;;;;;;17.27;4.78;;;;;15.80;99000.00;;;;10250791;28;20337;-79
2023/08/03 04:53:07;;;;;;;16.02;4.28;;;;;15.80;99017.00;;;;10250624;28;20321;-79
2023/08/03 04:58:08;;;;;;;19.48;4.93;;;;;15.70;99048.00;;;;10252163;28;20214;-81
2023/08/03 05:03:13;;;;;;;10.13;4.05;;;;;15.70;99062.00;;;;10215946;28;20231;-79
2023/08/03 05:08:14;;;;;;;3.78;1.65;;;;;15.70;99064.00;;;;10235416;28;20589;-78
2023/08/03 05:13:17;;;;;;;6.25;2.10;;;;;15.70;99090.00;;;;10239075;28;20215;-78
2023/08/03 05:18:19;;;;;;;10.10;2.80;;;;;15.90;99087.00;;;;10270958;28;21726;-78
2023/08/03 05:23:20;;;;;;;15.23;3.55;;;;;15.90;99094.00;;;;10272550;28;20577;-77
2023/08/03 05:28:22;;;;;;;14.60;3.40;;;;;15.90;99114.00;;;;10256158;28;20494;-76
2023/08/03 05:33:23;;;;;;;11.18;3.03;;;;;15.90;99112.00;;;;10277342;28;20211;-77
2023/08/03 05:38:25;;;;;;;12.30;2.55;;;;;15.90;99121.00;;;;10280027;28;20238;-78
2023/08/03 05:43:27;;;;;;;7.18;2.45;;;;;16.00;99128.00;;;;10244671;28;20715;-77
2023/08/03 05:48:30;;;;;;;9.00;2.17;;;;;16.10;99138.00;;;;10259736;28;21384;-78
2023/08/03 05:53:32;;;;;;;8.27;2.65;;;;;16.20;99151.00;;;;10259478;28;20219;-77
2023/08/03 05:58:35;;;;;;;10.40;2.38;;;;;16.20;99158.00;;;;10260591;28;20214;-77
2023/08/03 06:03:41;;;;;;;9.50;2.20;;;;;16.30;99167.00;;;;10277928;28;20239;-78
2023/08/03 06:08:46;;;;;;;7.97;2.40;;;;;16.30;99181.00;;;;10258334;28;20238;-77
2023/08/03 06:13:51;;;;;;;7.22;2.28;;;;;16.40;99180.00;;;;10277459;28;20324;-77
2023/08/03 06:18:54;;;;;;;6.55;2.10;;;;;16.50;99192.00;;;;10244358;28;20564;-77
2023/08/03 06:23:57;;;;;;;8.35;2.17;;;;;16.50;99200.00;;;;10278781;28;20227;-78
2023/08/03 06:29:01;;;;;;;10.27;2.78;;;;;16.50;99222.00;;;;10245501;28;21608;-77
2023/08/03 06:34:03;;;;;;;6.80;2.30;;;;;16.70;99220.00;;;;10258695;28;20219;-78
2023/08/03 06:39:04;;;;;;;8.68;2.45;;;;;16.80;99229.00;;;;10278803;28;20215;-78
2023/08/03 06:44:06;;;;;;;9.15;2.50;;;;;16.80;99236.00;;;;10257696;28;20616;-78
2023/08/03 06:49:07;;;;;;;6.75;2.38;;;;;17.00;99235.00;;;;10242850;28;20211;-78
2023/08/03 06:54:08;;;;;;;4.95;2.30;;;;;16.90;99247.00;;;;10251117;28;20814;-78
2023/08/03 06:59:09;;;;;;;9.77;2.95;;;;;17.10;99266.00;;;;10275890;28;20234;-77
2023/08/03 07:04:11;;;;;;;9.85;2.85;;;;;17.30;99276.00;;;;10275400;28;20224;-78
2023/08/03 07:09:12;;;;;;;8.38;3.15;;;;;17.90;99281.00;;;;10277296;28;20538;-77
2023/08/03 07:14:13;;;;;;;10.57;3.40;;;;;18.00;99296.00;;;;10259682;28;21009;-77
2023/08/03 07:19:16;;;;;;;12.18;3.20;;;;;18.50;99315.00;;;;10279089;28;20215;-77
2023/08/03 07:24:17;;;;;;;9.02;2.85;;;;;18.80;99327.00;;;;10256863;28;20215;-78
2023/08/03 07:29:18;;;;;;;10.93;3.05;;;;;18.90;99326.00;;;;10277075;28;20250;-77
2023/08/03 07:34:20;;;;;;;7.63;2.60;;;;;19.20;99338.00;;;;10259749;28;20219;-79
2023/08/03 07:39:22;;;;;;;8.25;2.75;;;;;18.80;99340.00;;;;10277219;28;20241;-78
2023/08/03 07:44:23;;;;;;;8.98;2.63;;;;;19.40;99357.00;;;;10277539;28;20296;-79
2023/08/03 07:49:24;;;;;;;8.75;3.30;;;;;20.10;99369.00;;;;10273452;28;20609;-79
2023/08/03 07:54:26;;;;;;;8.93;2.55;;;;;20.20;99365.00;;;;10257102;28;20696;-77
2023/08/03 07:59:27;;;;;;;11.60;2.67;;;;;19.90;99384.00;;;;10275653;28;20836;-78
2023/08/03 08:04:28;;;;;;;7.82;2.72;;;;;20.30;99394.00;;;;10275524;28;20747;-79
2023/08/03 08:09:30;;;;;;;6.38;2.20;;;;;20.90;99406.00;;;;10274819;28;20254;-78
2023/08/03 08:14:32;;;;;;;7.18;2.60;;;;;20.30;99416.00;;;;10274889;28;20716;-79
2023/08/03 08:19:33;;;;;;;9.55;2.38;;;;;19.30;99411.00;;;;10256816;28;20590;-78
2023/08/03 08:24:35;;;;;;;8.88;3.20;;;;;19.00;99423.00;;;;10257346;28;20215;-77
2023/08/03 08:29:37;;;;;;;9.13;2.70;;;;;19.30;99436.00;;;;10256009;28;20238;-79
2023/08/03 08:34:38;;;;;;;8.38;2.90;;;;;19.50;99440.00;;;;10274366;28;20215;-78
2023/08/03 08:39:39;;;;;;;11.55;2.80;;;;;20.90;99453.00;;;;10272126;28;20253;-79
2023/08/03 08:44:41;;;;;;;11.88;2.80;;;;;20.90;99454.00;;;;10256356;28;20413;-77
2023/08/03 08:49:43;;;;;;;10.40;2.80;;;;;20.60;99459.00;;;;10254878;28;20790;-78
2023/08/03 08:54:48;;;;;;;8.95;3.10;;;;;20.90;99475.00;;;;10271864;28;20265;-78
2023/08/03 09:00:02;;;;;;;11.10;2.55;;;;;19.90;99495.00;;;;10256705;28;20206;-79
2023/08/03 09:05:14;;;;;;;11.75;2.80;;;;;19.30;99493.00;;;;10273854;28;20788;-78
2023/08/03 09:10:15;;;;;;;7.78;1.85;;;;;19.60;99503.00;;;;10274173;28;20781;-78
2023/08/03 09:15:16;;;;;;;11.27;2.97;;;;;19.70;99523.00;;;;10273676;28;20326;-78
2023/08/03 09:20:28;;;;;;;8.38;2.30;;;;;20.90;99529.00;;;;10257035;28;20246;-78
2023/08/03 09:25:32;;;;;;;12.70;2.42;;;;;22.80;99538.00;;;;10272553;28;20294;-78
2023/08/03 09:30:52;;;;;;;10.60;2.22;;;;;22.80;99562.00;;;;10272695;28;20815;-77
2023/08/03 09:36:11;;;;;;;6.45;1.73;;;;;21.10;99573.00;;;;10254308;28;20519;-78
2023/08/03 09:41:36;;;;;;;9.35;2.40;;;;;20.70;99572.00;;;;10253244;28;20707;-78
2023/08/03 09:46:40;;;;;;;11.57;2.25;;;;;20.80;99578.00;;;;10252584;28;20669;-77
2023/08/03 09:51:44;;;;;;;10.48;2.33;;;;;20.60;99590.00;;;;10258393;28;20238;-78
2023/08/03 09:56:53;;;;;;;9.68;2.53;;;;;19.50;99599.00;;;;10275916;28;20850;-78
2023/08/03 10:02:01;;;;;;;11.15;2.70;;;;;19.20;99607.00;;;;10257644;28;20652;-78
2023/08/03 10:07:07;;;;;;;8.32;2.53;;;;;19.70;99619.00;;;;10275342;28;20207;-78
2023/08/03 10:12:29;;;;;;;9.77;2.30;;;;;20.60;99628.00;;;;10277006;28;20219;-79
2023/08/03 10:17:31;;;;;;;10.60;2.38;;;;;20.70;99645.00;;;;10275828;28;20222;-78
2023/08/03 10:22:34;;;;;;;11.73;2.08;;;;;20.50;99643.00;;;;10281733;28;20786;-77
2023/08/03 10:27:35;;;;;;;7.15;2.22;;;;;19.90;99661.00;;;;10284460;28;20211;-78
2023/08/03 10:32:36;;;;;;;8.52;2.10;;;;;19.60;99654.00;;;;10284849;28;20927;-79
2023/08/03 10:37:40;;;;;;;7.72;1.85;;;;;19.10;99675.00;;;;10281558;28;20227;-78
2023/08/03 10:42:42;;;;;;;8.48;2.03;;;;;18.80;99679.00;;;;10265638;28;20230;-77
2023/08/03 10:47:44;;;;;;;6.47;2.00;;;;;18.90;99687.00;;;;10285292;28;20273;-78
2023/08/03 10:52:46;;;;;;;5.75;1.80;;;;;19.40;99700.00;;;;10281232;28;20203;-78
2023/08/03 10:57:47;;;;;;;7.13;2.33;;;;;19.60;99709.00;;;;10282394;28;20211;-78
2023/08/03 11:02:50;;;;;;;3.75;2.63;;;;;20.70;99709.00;;;;10282337;28;20352;-78
2023/08/03 11:07:54;;;;;;;5.78;1.90;;;;;20.60;99723.00;;;;10283577;28;20621;-77
2023/08/03 11:12:56;;;;;;;7.93;2.15;;;;;19.40;99736.00;;;;10279189;28;20207;-78
2023/08/03 11:17:58;;;;;;;10.55;3.03;;;;;18.60;99742.00;;;;10282029;28;20219;-78
2023/08/03 11:22:59;;;;;;;7.53;2.30;;;;;18.40;99752.00;;;;10261683;28;20230;-77
2023/08/03 11:28:00;;;;;;;9.05;2.95;;;;;18.70;99750.00;;;;10282679;28;20286;-78
2023/08/03 11:33:02;;;;;;;9.07;2.53;;;;;18.60;99766.00;;;;10280108;28;20215;-77
2023/08/03 11:38:07;;;;;;;9.98;2.80;;;;;17.80;99773.00;;;;10280745;28;20195;-77
2023/08/03 11:43:09;;;;;;;8.70;2.17;;;;;17.80;99782.00;;;;10278669;28;21821;-77
2023/08/03 11:48:10;;;;;;;2.45;1.33;;;;;17.90;99790.00;;;;10280872;28;20231;-78
2023/08/03 11:53:26;;;;;;;2.75;1.70;;;;;18.00;99809.00;;;;10280855;28;20214;-78
2023/08/03 11:58:27;;;;;;;3.35;2.00;;;;;18.90;99813.00;;;;10264044;28;21031;-78
2023/08/03 12:03:37;;;;;;;5.65;1.80;;;;;18.20;99850.00;;;;10260650;28;21417;-78
2023/08/03 12:08:49;;;;;;;4.07;1.55;;;;;17.40;99832.00;;;;10277426;28;20462;-79
2023/08/03 12:13:50;;;;;;;7.32;2.47;;;;;17.50;99839.00;;;;10254006;28;20756;-78
2023/08/03 12:18:53;;;;;;;8.00;3.63;;;;;17.50;99839.00;;;;10254964;28;20215;-78
2023/08/03 12:23:54;;;;;;;6.38;2.70;;;;;18.00;99857.00;;;;10272578;28;21731;-78
2023/08/03 12:28:57;;;;;;;4.47;3.05;;;;;17.80;99877.00;;;;10257018;28;21804;-78
2023/08/03 12:34:09;;;;;;;7.20;3.50;;;;;18.40;99874.00;;;;10256855;28;21016;-79
2023/08/03 12:39:10;;;;;;;7.38;3.08;;;;;19.10;99888.00;;;;10272008;28;20211;-78
2023/08/03 12:44:11;;;;;;;9.00;3.58;;;;;19.50;99892.00;;;;10274572;28;20223;-78
2023/08/03 12:49:13;;;;;;;9.05;3.45;;;;;19.70;99906.00;;;;10272897;28;21664;-79
2023/08/03 12:54:14;;;;;;;8.80;3.75;;;;;20.10;99908.00;;;;10255301;28;20257;-78
2023/08/03 12:59:15;;;;;;;6.40;3.35;;;;;20.30;99919.00;;;;10238271;28;20448;-79
2023/08/03 13:04:17;;;;;;;8.18;3.35;;;;;20.30;99909.00;;;;10257158;28;20219;-79
2023/08/03 13:09:19;;;;;;;6.65;2.70;;;;;20.20;99934.00;;;;10256132;28;20452;-79
2023/08/03 13:14:20;;;;;;;7.18;3.00;;;;;20.40;99931.00;;;;10253170;28;20211;-78
2023/08/03 13:19:21;;;;;;;9.25;3.03;;;;;20.80;99939.00;;;;10255973;28;20211;-80
2023/08/03 13:24:23;;;;;;;7.28;3.10;;;;;21.20;99942.00;;;;10240130;28;20604;-79
2023/08/03 13:29:24;;;;;;;11.00;2.88;;;;;21.70;99941.00;;;;10255261;28;20426;-79
2023/08/03 13:34:25;;;;;;;9.23;3.25;;;;;23.20;99939.00;;;;10273567;28;20234;-79
2023/08/03 13:39:27;;;;;;;9.82;3.42;;;;;23.60;99955.00;;;;10254460;28;20273;-78
2023/08/03 13:44:28;;;;;;;8.48;2.85;;;;;23.60;99964.00;;;;10274522;28;20609;-79
2023/08/03 13:49:31;;;;;;;7.53;2.53;;;;;22.00;99978.00;;;;10255410;28;21276;-78
2023/08/03 13:54:32;;;;;;;8.07;2.10;;;;;19.60;99991.00;;;;10257311;28;20218;-78
2023/08/03 13:59:33;;;;;;;8.15;2.92;;;;;18.50;99984.00;;;;10277321;28;20207;-78
2023/08/03 14:04:35;;;;;;;10.95;3.22;;;;;19.50;99992.00;;;;10278229;28;20212;-79
2023/08/03 14:09:37;;;;;;;14.60;3.47;;;;;20.50;99992.00;;;;10279238;28;20211;-78
2023/08/03 14:14:38;;;;;;;13.65;3.72;;;;;19.80;100013.00;;;;10263712;28;20249;-80
2023/08/03 14:19:42;;;;;;;8.13;3.10;;;;;19.10;100021.00;;;;10264233;28;20625;-79
2023/08/03 14:24:44;;;;;;;9.27;2.75;;;;;17.90;100041.00;;;;10260242;28;20804;-78
2023/08/03 14:30:06;;;;;;;8.57;2.58;;;;;17.70;100045.00;;;;10259567;28;21722;-79
2023/08/03 14:35:07;;;;;;;13.50;3.20;;;;;17.60;100065.00;;;;10274666;28;20651;-78
2023/08/03 14:40:12;;;;;;;7.70;4.18;;;;;17.20;100075.00;;;;10260020;28;20241;-79
2023/08/03 14:45:13;;;;;;;14.50;4.30;;;;;16.80;100092.00;;;;10257933;28;20231;-78
2023/08/03 14:50:16;;;;;;;15.70;4.60;;;;;16.80;100099.00;;;;10261736;28;20465;-77
2023/08/03 14:55:21;;;;;;;9.52;4.10;;;;;16.80;100112.00;;;;10275396;28;20254;-81
2023/08/03 15:00:22;;;;;;;10.35;4.30;;;;;17.00;100107.00;;;;10257341;28;20217;-79
2023/08/03 15:05:23;;;;;;;10.38;3.30;;;;;17.00;100110.00;;;;10273671;28;20329;-78
2023/08/03 15:10:25;;;;;;;14.35;3.70;;;;;17.40;100117.00;;;;10253276;28;20211;-80
2023/08/03 15:15:26;;;;;;;13.30;3.97;;;;;17.90;100107.00;;;;10256714;28;20207;-78
2023/08/03 15:20:31;;;;;;;15.82;4.97;;;;;17.80;100120.00;;;;10255753;28;20775;-79
2023/08/03 15:25:38;;;;;;;14.98;6.05;;;;;17.60;100113.00;;;;10241692;28;20236;-78
2023/08/03 15:30:50;;;;;;;9.88;3.50;;;;;17.30;100119.00;;;;10275308;28;20334;-78
2023/08/03 15:35:54;;;;;;;14.80;4.18;;;;;17.00;100127.00;;;;10271181;28;21353;-77
2023/08/03 15:40:56;;;;;;;10.27;3.90;;;;;17.00;100134.00;;;;10276087;28;20207;-78
2023/08/03 15:46:06;;;;;;;17.52;4.38;;;;;17.20;100138.00;;;;10241247;28;20691;-78
2023/08/03 15:51:13;;;;;;;10.35;3.35;;;;;17.30;100133.00;;;;10224693;28;20235;-78
2023/08/03 15:56:20;;;;;;;11.25;4.13;;;;;17.20;100146.00;;;;10261592;28;20250;-78
2023/08/03 16:01:21;;;;;;;13.27;4.03;;;;;17.30;100147.00;;;;10259981;28;21816;-78
2023/08/03 16:06:23;;;;;;;13.48;4.53;;;;;17.20;100147.00;;;;10278067;28;20456;-78
2023/08/03 16:11:25;;;;;;;17.33;4.70;;;;;17.20;100157.00;;;;10272314;28;20215;-77
2023/08/03 16:16:47;;;;;;;11.15;4.43;;;;;17.20;100151.00;;;;10258765;28;20246;-78
2023/08/03 16:21:48;;;;;;;12.35;4.75;;;;;17.20;100156.00;;;;10273183;28;20215;-77
2023/08/03 16:26:51;;;;;;;17.00;4.53;;;;;17.30;100153.00;;;;10274350;28;20298;-78
2023/08/03 16:31:53;;;;;;;14.75;4.57;;;;;17.20;100164.00;;;;10259776;28;20211;-78
2023/08/03 16:36:55;;;;;;;11.77;3.30;;;;;17.00;100166.00;;;;10277706;28;20207;-77
2023/08/03 16:41:56;;;;;;;11.02;3.60;;;;;16.90;100167.00;;;;10258015;28;20219;-78
2023/08/03 16:46:57;;;;;;;11.27;3.53;;;;;17.10;100174.00;;;;10277873;28;20465;-77
2023/08/03 16:51:59;;;;;;;15.05;3.38;;;;;17.50;100187.00;;;;10274304;28;20212;-78
2023/08/03 16:57:00;;;;;;;16.02;3.60;;;;;17.80;100180.00;;;;10257846;28;20464;-78
2023/08/03 17:02:01;;;;;;;14.38;3.88;;;;;17.90;100189.00;;;;10258076;28;20219;-77
2023/08/03 17:07:03;;;;;;;12.88;3.63;;;;;17.80;100196.00;;;;10278738;28;20210;-77
2023/08/03 17:12:06;;;;;;;11.27;3.67;;;;;17.60;100197.00;;;;10277043;28;21004;-77
2023/08/03 17:17:08;;;;;;;10.00;3.63;;;;;17.60;100203.00;;;;10272466;28;20600;-78
2023/08/03 17:22:11;;;;;;;10.77;3.10;;;;;17.60;100215.00;;;;10276039;28;20227;-78
2023/08/03 17:27:12;;;;;;;11.02;3.25;;;;;17.50;100220.00;;;;10275385;28;20211;-78
2023/08/03 17:32:13;;;;;;;14.77;3.42;;;;;17.50;100233.00;;;;10264493;28;20845;-78
2023/08/03 17:37:14;;;;;;;12.35;3.08;;;;;17.40;100235.00;;;;10278423;28;21394;-78
2023/08/03 17:42:16;;;;;;;14.07;3.50;;;;;17.30;100251.00;;;;10261621;28;21577;-77
2023/08/03 17:47:17;;;;;;;17.45;3.22;;;;;17.20;100244.00;;;;10278727;28;20667;-78
2023/08/03 17:52:18;;;;;;;11.90;3.22;;;;;17.20;100246.00;;;;10246261;28;20458;-77
2023/08/03 17:57:20;;;;;;;16.60;3.25;;;;;17.20;100252.00;;;;10246466;28;20277;-78
2023/08/03 18:02:21;;;;;;;6.13;2.60;;;;;17.20;100264.00;;;;10282084;28;20227;-78
2023/08/03 18:07:23;;;;;;;17.42;3.00;;;;;17.10;100270.00;;;;10259705;28;21092;-78
2023/08/03 18:12:24;;;;;;;8.65;2.80;;;;;17.00;100272.00;;;;10280526;28;20207;-77
2023/08/03 18:17:25;;;;;;;14.32;3.42;;;;;17.00;100285.00;;;;10277825;28;20898;-78
2023/08/03 18:22:27;;;;;;;14.02;3.15;;;;;16.90;100287.00;;;;10260932;28;20784;-78
2023/08/03 18:27:28;;;;;;;9.23;3.35;;;;;16.80;100289.00;;;;10243529;28;20783;-79
2023/08/03 18:32:29;;;;;;;9.57;2.80;;;;;16.70;100288.00;;;;10259905;28;20215;-78
2023/08/03 18:37:31;;;;;;;11.43;3.28;;;;;16.60;100297.00;;;;10279267;28;20211;-78
2023/08/03 18:42:32;;;;;;;9.13;3.30;;;;;16.40;100308.00;;;;10273836;28;20289;-78
2023/08/03 18:47:34;;;;;;;7.57;3.35;;;;;16.30;100305.00;;;;10259133;28;21264;-76
2023/08/03 18:52:35;;;;;;;9.45;3.30;;;;;16.20;100316.00;;;;10279830;28;20306;-77
2023/08/03 18:57:37;;;;;;;11.23;3.47;;;;;16.00;100321.00;;;;10244942;28;20298;-78
2023/08/03 19:02:38;;;;;;;13.20;3.53;;;;;15.80;100335.00;;;;10274880;28;20223;-78
2023/08/03 19:07:40;;;;;;;11.57;3.75;;;;;15.70;100338.00;;;;10261847;28;20228;-78
2023/08/03 19:12:41;;;;;;;9.98;3.15;;;;;15.50;100341.00;;;;10275726;28;20874;-78
2023/08/03 19:17:42;;;;;;;9.38;3.50;;;;;15.40;100338.00;;;;10259290;28;20218;-78
2023/08/03 19:22:44;;;;;;;15.15;4.55;;;;;15.30;100346.00;;;;10273423;28;20771;-77
2023/08/03 19:27:45;;;;;;;12.65;3.60;;;;;15.10;100350.00;;;;10260069;28;20207;-78
2023/08/03 19:32:47;;;;;;;15.10;3.60;;;;;15.10;100355.00;;;;10276767;28;20555;-78
2023/08/03 19:37:49;;;;;;;11.43;3.75;;;;;15.10;100368.00;;;;10258352;28;22043;-78
2023/08/03 19:42:53;;;;;;;20.02;4.40;;;;;15.00;100374.00;;;;10278802;28;21671;-77
2023/08/03 19:47:56;;;;;;;12.48;4.10;;;;;14.90;100382.00;;;;10260897;28;20246;-77
2023/08/03 19:52:58;;;;;;;14.15;3.75;;;;;14.80;100396.00;;;;10275533;28;20207;-77
2023/08/03 19:58:02;;;;;;;18.25;4.10;;;;;14.60;100398.00;;;;10279453;28;20214;-77
2023/08/03 20:03:06;;;;;;;10.70;4.13;;;;;14.50;100406.00;;;;10275876;28;20457;-78
2023/08/03 20:08:10;;;;;;;13.95;4.28;;;;;14.50;100406.00;;;;10241833;28;20820;-77
2023/08/03 20:13:14;;;;;;;10.13;3.50;;;;;14.40;100409.00;;;;10256642;28;20264;-77
2023/08/03 20:18:16;;;;;;;14.63;4.30;;;;;14.30;100417.00;;;;10240849;28;20235;-77
2023/08/03 20:23:20;;;;;;;9.85;4.43;;;;;14.20;100413.00;;;;10241528;28;20239;-78
2023/08/03 20:28:22;;;;;;;11.65;4.60;;;;;14.10;100426.00;;;;10242137;28;20215;-79
2023/08/03 20:33:27;;;;;;;16.40;4.90;;;;;14.00;100433.00;;;;10275195;28;20215;-77
2023/08/03 20:38:28;;;;;;;17.08;4.88;;;;;14.00;100433.00;;;;10275978;28;20605;-77
2023/08/03 20:43:32;;;;;;;16.20;4.45;;;;;13.90;100444.00;;;;10275545;28;20725;-78
2023/08/03 20:48:39;;;;;;;13.25;4.72;;;;;13.80;100451.00;;;;10256823;28;20226;-78
2023/08/03 20:53:40;;;;;;;13.57;4.83;;;;;13.70;100452.00;;;;10256692;28;20605;-77
2023/08/03 20:58:44;;;;;;;18.70;4.93;;;;;13.70;100465.00;;;;10242499;28;20310;-78
2023/08/03 21:03:46;;;;;;;16.53;4.93;;;;;13.60;100468.00;;;;10238926;28;20231;-77
2023/08/03 21:08:47;;;;;;;18.55;5.35;;;;;13.60;100464.00;;;;10223615;28;20222;-78
2023/08/03 21:13:48;;;;;;;21.95;5.82;;;;;13.60;100474.00;;;;10256737;28;20214;-78
2023/08/03 21:18:50;;;;;;;16.03;5.23;;;;;13.50;100472.00;;;;10271535;28;20214;-77
2023/08/03 21:23:54;;;;;;;19.17;6.20;;;;;13.60;100480.00;;;;10253935;28;20269;-77
2023/08/03 21:28:55;;;;;;;19.00;6.30;;;;;13.60;100477.00;;;;10272385;28;20203;-78
2023/08/03 21:33:57;;;;;;;12.50;6.07;;;;;13.60;100490.00;;;;10273610;28;21935;-77
2023/08/03 21:38:58;;;;;;;16.40;6.10;;;;;13.70;100500.00;;;;10254293;28;20563;-78
2023/08/03 21:44:00;;;;;;;18.92;6.30;;;;;13.70;100496.00;;;;10239783;28;20223;-77
2023/08/03 21:49:01;;;;;;;17.52;6.88;;;;;13.80;100507.00;;;;10271877;28;20924;-77
2023/08/03 21:54:03;;;;;;;19.23;6.63;;;;;13.80;100508.00;;;;10270873;28;20530;-78
2023/08/03 21:59:04;;;;;;;12.82;5.22;;;;;13.80;100523.00;;;;10270582;28;20484;-77
2023/08/03 22:04:06;;;;;;;15.43;5.43;;;;;13.70;100512.00;;;;10237766;28;20247;-77
2023/08/03 22:09:07;;;;;;;16.00;5.88;;;;;13.60;100528.00;;;;10252943;28;20515;-77
2023/08/03 22:14:08;;;;;;;16.00;6.38;;;;;13.50;100524.00;;;;10255979;28;20890;-78
2023/08/03 22:19:11;;;;;;;19.63;7.38;;;;;13.40;100527.00;;;;10225470;28;20215;-78
2023/08/03 22:24:12;;;;;;;14.60;6.30;;;;;13.30;100544.00;;;;10243274;28;20238;-78
2023/08/03 22:29:14;;;;;;;16.83;6.30;;;;;13.20;100539.00;;;;10275303;28;20214;-78
2023/08/03 22:34:15;;;;;;;14.13;5.60;;;;;13.20;100547.00;;;;10257649;28;20316;-77
2023/08/03 22:39:16;;;;;;;18.87;5.50;;;;;13.10;100547.00;;;;10275559;28;20699;-78
2023/08/03 22:44:18;;;;;;;15.53;6.33;;;;;13.00;100548.00;;;;10244740;28;20316;-77
2023/08/03 22:49:19;;;;;;;18.60;6.03;;;;;13.00;100553.00;;;;10276361;28;21858;-78
2023/08/03 22:54:20;;;;;;;19.70;7.80;;;;;13.00;100563.00;;;;10277077;28;20208;-78
2023/08/03 22:59:22;;;;;;;12.17;6.17;;;;;12.90;100556.00;;;;10261823;28;20269;-77
2023/08/03 23:04:23;;;;;;;12.47;6.40;;;;;12.90;100568.00;;;;10280622;28;20231;-78
2023/08/03 23:09:25;;;;;;;14.87;6.03;;;;;12.80;100574.00;;;;10278182;28;20211;-78
2023/08/03 23:14:26;;;;;;;19.20;7.03;;;;;12.70;100583.00;;;;10245238;28;20752;-77
2023/08/03 23:19:27;;;;;;;15.30;6.87;;;;;12.70;100593.00;;;;10259319;28;20215;-77
2023/08/03 23:24:29;;;;;;;13.77;6.60;;;;;12.60;100588.00;;;;10276135;28;20219;-78
2023/08/03 23:29:30;;;;;;;17.37;7.40;;;;;12.50;100579.00;;;;10277791;28;20243;-77
2023/08/03 23:34:31;;;;;;;15.67;6.93;;;;;12.50;100579.00;;;;10278491;28;20195;-77
2023/08/03 23:39:32;;;;;;;18.73;7.27;;;;;12.50;100571.00;;;;10279254;28;20644;-78
2023/08/03 23:44:34;;;;;;;16.67;8.13;;;;;12.40;100568.00;;;;10276901;28;20722;-77
2023/08/03 23:49:35;;;;;;;18.70;7.67;;;;;12.40;100568.00;;;;10243144;28;20358;-78
2023/08/03 23:54:37;;;;;;;16.20;7.43;;;;;12.40;100567.00;;;;10277313;28;20207;-77
2023/08/03 23:59:38;;;;;;;18.57;7.80;;;;;12.30;100574.00;;;;10277466;28;20370;-79
